sensor_id;sensor_type;location;lat;lon;timestamp;pressure;altitude;pressure_sealevel;temperature
73685;BMP280;61985;51.070;14.064;2022-10-31T00:00:16;99145.44;;;9.13
73685;BMP280;61985;51.070;14.064;2022-10-31T00:02:42;99146.44;;;9.23
73685;BMP280;61985;51.070;14.064;2022-10-31T00:05:08;99138.16;;;9.10
73685;BMP280;61985;51.070;14.064;2022-10-31T00:07:33;99139.66;;;9.11
73685;BMP280;61985;51.070;14.064;2022-10-31T00:09:59;99136.25;;;9.03
73685;BMP280;61985;51.070;14.064;2022-10-31T00:12:24;99134.06;;;8.94
73685;BMP280;61985;51.070;14.064;2022-10-31T00:14:49;99132.88;;;8.96
73685;BMP280;61985;51.070;14.064;2022-10-31T00:17:14;99130.66;;;8.90
73685;BMP280;61985;51.070;14.064;2022-10-31T00:19:40;99137.47;;;8.99
73685;BMP280;61985;51.070;14.064;2022-10-31T00:22:05;99139.88;;;8.93
73685;BMP280;61985;51.070;14.064;2022-10-31T00:24:30;99133.81;;;8.82
73685;BMP280;61985;51.070;14.064;2022-10-31T00:26:56;99140.72;;;8.83
73685;BMP280;61985;51.070;14.064;2022-10-31T00:29:21;99140.81;;;8.72
73685;BMP280;61985;51.070;14.064;2022-10-31T00:31:46;99138.06;;;8.75
73685;BMP280;61985;51.070;14.064;2022-10-31T00:34:12;99137.28;;;8.79
73685;BMP280;61985;51.070;14.064;2022-10-31T00:36:37;99148.81;;;8.79
73685;BMP280;61985;51.070;14.064;2022-10-31T00:39:02;99143.34;;;8.86
73685;BMP280;61985;51.070;14.064;2022-10-31T00:41:28;99144.56;;;8.82
73685;BMP280;61985;51.070;14.064;2022-10-31T00:43:54;99154.16;;;8.83
73685;BMP280;61985;51.070;14.064;2022-10-31T00:46:20;99148.81;;;8.79
73685;BMP280;61985;51.070;14.064;2022-10-31T00:48:45;99151.50;;;8.79
73685;BMP280;61985;51.070;14.064;2022-10-31T00:51:10;99144.97;;;8.77
73685;BMP280;61985;51.070;14.064;2022-10-31T00:53:36;99154.25;;;8.72
73685;BMP280;61985;51.070;14.064;2022-10-31T00:56:02;99146.19;;;8.72
73685;BMP280;61985;51.070;14.064;2022-10-31T00:58:27;99148.50;;;8.70
73685;BMP280;61985;51.070;14.064;2022-10-31T01:00:53;99156.56;;;8.70
73685;BMP280;61985;51.070;14.064;2022-10-31T01:03:26;99160.78;;;8.67
73685;BMP280;61985;51.070;14.064;2022-10-31T01:05:59;99150.06;;;8.64
73685;BMP280;61985;51.070;14.064;2022-10-31T01:08:25;99150.06;;;8.64
73685;BMP280;61985;51.070;14.064;2022-10-31T01:11:14;99151.19;;;8.66
73685;BMP280;61985;51.070;14.064;2022-10-31T01:13:40;99148.19;;;8.61
73685;BMP280;61985;51.070;14.064;2022-10-31T01:16:06;99163.44;;;8.71
73685;BMP280;61985;51.070;14.064;2022-10-31T01:18:33;99144.28;;;8.69
73685;BMP280;61985;51.070;14.064;2022-10-31T01:23:24;99145.16;;;8.55
73685;BMP280;61985;51.070;14.064;2022-10-31T01:25:49;99152.13;;;8.49
73685;BMP280;61985;51.070;14.064;2022-10-31T01:28:15;99155.97;;;8.44
73685;BMP280;61985;51.070;14.064;2022-10-31T01:30:40;99145.59;;;8.50
73685;BMP280;61985;51.070;14.064;2022-10-31T01:33:05;99153.28;;;8.44
73685;BMP280;61985;51.070;14.064;2022-10-31T01:35:31;99148.34;;;8.39
73685;BMP280;61985;51.070;14.064;2022-10-31T01:37:56;99157.16;;;8.40
73685;BMP280;61985;51.070;14.064;2022-10-31T01:40:21;99150.28;;;8.35
73685;BMP280;61985;51.070;14.064;2022-10-31T01:42:47;99151.81;;;8.36
73685;BMP280;61985;51.070;14.064;2022-10-31T01:45:14;99156.81;;;8.34
73685;BMP280;61985;51.070;14.064;2022-10-31T01:47:44;99150.72;;;8.30
73685;BMP280;61985;51.070;14.064;2022-10-31T01:50:15;99153.72;;;8.39
73685;BMP280;61985;51.070;14.064;2022-10-31T01:52:47;99156.09;;;8.26
73685;BMP280;61985;51.070;14.064;2022-10-31T01:55:20;99150.72;;;8.30
73685;BMP280;61985;51.070;14.064;2022-10-31T01:57:48;99146.59;;;8.14
73685;BMP280;61985;51.070;14.064;2022-10-31T02:00:15;99146.97;;;8.16
73685;BMP280;61985;51.070;14.064;2022-10-31T02:02:40;99151.63;;;8.05
73685;BMP280;61985;51.070;14.064;2022-10-31T02:05:10;99153.88;;;8.18
73685;BMP280;61985;51.070;14.064;2022-10-31T02:07:47;99145.09;;;8.10
73685;BMP280;61985;51.070;14.064;2022-10-31T02:10:14;99158.53;;;8.10
73685;BMP280;61985;51.070;14.064;2022-10-31T02:12:40;99155.81;;;8.06
73685;BMP280;61985;51.070;14.064;2022-10-31T02:15:07;99157.75;;;8.09
73685;BMP280;61985;51.070;14.064;2022-10-31T02:17:33;99151.63;;;8.05
73685;BMP280;61985;51.070;14.064;2022-10-31T02:20:09;99154.69;;;8.04
73685;BMP280;61985;51.070;14.064;2022-10-31T02:31:45;99159.03;;;7.87
73685;BMP280;61985;51.070;14.064;2022-10-31T02:34:22;99157.88;;;7.84
73685;BMP280;61985;51.070;14.064;2022-10-31T02:36:58;99162.47;;;7.84
73685;BMP280;61985;51.070;14.064;2022-10-31T02:40:00;99149.75;;;7.98
73685;BMP280;61985;51.070;14.064;2022-10-31T02:47:38;99167.06;;;7.87
73685;BMP280;61985;51.070;14.064;2022-10-31T02:50:21;99163.22;;;7.84
73685;BMP280;61985;51.070;14.064;2022-10-31T02:52:52;99161.34;;;7.77
73685;BMP280;61985;51.070;14.064;2022-10-31T02:57:52;99169.38;;;7.81
73685;BMP280;61985;51.070;14.064;2022-10-31T03:00:19;99170.94;;;7.75
73685;BMP280;61985;51.070;14.064;2022-10-31T03:03:09;99173.22;;;7.80
73685;BMP280;61985;51.070;14.064;2022-10-31T03:06:06;99175.56;;;7.74
73685;BMP280;61985;51.070;14.064;2022-10-31T03:08:55;99182.47;;;7.68
73685;BMP280;61985;51.070;14.064;2022-10-31T03:11:29;99173.66;;;7.68
73685;BMP280;61985;51.070;14.064;2022-10-31T03:14:19;99183.22;;;7.65
73685;BMP280;61985;51.070;14.064;2022-10-31T03:16:48;99175.19;;;7.58
73685;BMP280;61985;51.070;14.064;2022-10-31T03:19:25;99174.06;;;7.59
73685;BMP280;61985;51.070;14.064;2022-10-31T03:22:19;99182.50;;;7.54
73685;BMP280;61985;51.070;14.064;2022-10-31T03:24:47;99185.56;;;7.49
73685;BMP280;61985;51.070;14.064;2022-10-31T03:27:18;99188.25;;;7.49
73685;BMP280;61985;51.070;14.064;2022-10-31T03:29:47;99184.81;;;7.52
73685;BMP280;61985;51.070;14.064;2022-10-31T03:32:27;99190.16;;;7.52
73685;BMP280;61985;51.070;14.064;2022-10-31T03:34:57;99185.56;;;7.49
73685;BMP280;61985;51.070;14.064;2022-10-31T03:37:27;99196.28;;;7.56
73685;BMP280;61985;51.070;14.064;2022-10-31T03:39:56;99193.25;;;7.39
73685;BMP280;61985;51.070;14.064;2022-10-31T03:42:25;99190.97;;;7.42
73685;BMP280;61985;51.070;14.064;2022-10-31T03:44:59;99197.44;;;7.44
73685;BMP280;61985;51.070;14.064;2022-10-31T03:47:26;99188.66;;;7.44
73685;BMP280;61985;51.070;14.064;2022-10-31T03:49:52;99196.34;;;7.27
73685;BMP280;61985;51.070;14.064;2022-10-31T03:55:17;99186.38;;;7.35
73685;BMP280;61985;51.070;14.064;2022-10-31T03:57:59;99192.50;;;7.35
73685;BMP280;61985;51.070;14.064;2022-10-31T04:00:25;99189.44;;;7.30
73685;BMP280;61985;51.070;14.064;2022-10-31T04:03:17;99189.09;;;7.28
73685;BMP280;61985;51.070;14.064;2022-10-31T04:05:46;99194.06;;;7.29
73685;BMP280;61985;51.070;14.064;2022-10-31T04:08:16;99193.69;;;7.20
73685;BMP280;61985;51.070;14.064;2022-10-31T04:10:43;99189.09;;;7.17
73685;BMP280;61985;51.070;14.064;2022-10-31T04:13:14;99195.56;;;7.19
73685;BMP280;61985;51.070;14.064;2022-10-31T04:15:41;99191.75;;;7.13
73685;BMP280;61985;51.070;14.064;2022-10-31T04:18:07;99187.19;;;7.14
73685;BMP280;61985;51.070;14.064;2022-10-31T04:20:35;99192.53;;;7.28
73685;BMP280;61985;51.070;14.064;2022-10-31T04:23:01;99195.59;;;7.16
73685;BMP280;61985;51.070;14.064;2022-10-31T04:25:27;99191.00;;;7.09
73685;BMP280;61985;51.070;14.064;2022-10-31T04:27:53;99200.22;;;7.15
73685;BMP280;61985;51.070;14.064;2022-10-31T04:30:18;99197.91;;;7.14
73685;BMP280;61985;51.070;14.064;2022-10-31T04:32:44;99199.84;;;7.17
73685;BMP280;61985;51.070;14.064;2022-10-31T04:35:09;99203.22;;;7.21
73685;BMP280;61985;51.070;14.064;2022-10-31T04:37:34;99198.28;;;7.12
73685;BMP280;61985;51.070;14.064;2022-10-31T04:40:00;99199.41;;;7.18
73685;BMP280;61985;51.070;14.064;2022-10-31T04:42:29;99200.19;;;7.19
73685;BMP280;61985;51.070;14.064;2022-10-31T04:44:54;99205.53;;;7.12
73685;BMP280;61985;51.070;14.064;2022-10-31T04:47:19;99201.34;;;7.04
73685;BMP280;61985;51.070;14.064;2022-10-31T04:49:45;99199.41;;;7.15
73685;BMP280;61985;51.070;14.064;2022-10-31T04:52:10;99197.50;;;7.12
73685;BMP280;61985;51.070;14.064;2022-10-31T04:54:35;99204.03;;;7.00
73685;BMP280;61985;51.070;14.064;2022-10-31T04:57:01;99198.69;;;7.00
73685;BMP280;61985;51.070;14.064;2022-10-31T04:59:26;99202.50;;;7.02
73685;BMP280;61985;51.070;14.064;2022-10-31T05:01:51;99201.34;;;6.96
73685;BMP280;61985;51.070;14.064;2022-10-31T05:04:17;99203.63;;;6.94
73685;BMP280;61985;51.070;14.064;2022-10-31T05:06:42;99200.97;;;6.94
73685;BMP280;61985;51.070;14.064;2022-10-31T05:09:07;99204.78;;;6.93
73685;BMP280;61985;51.070;14.064;2022-10-31T05:11:33;99202.50;;;6.88
73685;BMP280;61985;51.070;14.064;2022-10-31T05:13:58;99205.56;;;6.87
73685;BMP280;61985;51.070;14.064;2022-10-31T05:16:23;99206.34;;;6.91
73685;BMP280;61985;51.070;14.064;2022-10-31T05:18:49;99203.66;;;6.91
73685;BMP280;61985;51.070;14.064;2022-10-31T05:21:14;99210.91;;;6.94
73685;BMP280;61985;51.070;14.064;2022-10-31T05:23:39;99204.03;;;6.89
73685;BMP280;61985;51.070;14.064;2022-10-31T05:26:05;99206.69;;;6.82
73685;BMP280;61985;51.070;14.064;2022-10-31T05:28:30;99208.22;;;6.90
73685;BMP280;61985;51.070;14.064;2022-10-31T05:30:55;99207.84;;;6.88
73685;BMP280;61985;51.070;14.064;2022-10-31T05:33:21;99207.06;;;6.84
73685;BMP280;61985;51.070;14.064;2022-10-31T05:35:46;99210.16;;;6.75
73685;BMP280;61985;51.070;14.064;2022-10-31T05:38:12;99211.28;;;6.74
73685;BMP280;61985;51.070;14.064;2022-10-31T05:40:37;99215.88;;;6.77
73685;BMP280;61985;51.070;14.064;2022-10-31T05:43:02;99215.50;;;6.75
73685;BMP280;61985;51.070;14.064;2022-10-31T05:45:28;99218.53;;;6.70
73685;BMP280;61985;51.070;14.064;2022-10-31T05:47:58;99211.63;;;6.55
73685;BMP280;61985;51.070;14.064;2022-10-31T05:50:25;99219.28;;;6.38
73685;BMP280;61985;51.070;14.064;2022-10-31T05:52:59;99225.75;;;6.37
73685;BMP280;61985;51.070;14.064;2022-10-31T05:55:24;99218.50;;;6.45
73685;BMP280;61985;51.070;14.064;2022-10-31T05:57:51;99223.91;;;6.52
73685;BMP280;61985;51.070;14.064;2022-10-31T06:00:17;99223.47;;;6.43
73685;BMP280;61985;51.070;14.064;2022-10-31T06:02:43;99230.78;;;6.57
73685;BMP280;61985;51.070;14.064;2022-10-31T06:05:08;99232.28;;;6.36
73685;BMP280;61985;51.070;14.064;2022-10-31T06:07:34;99225.34;;;6.39
73685;BMP280;61985;51.070;14.064;2022-10-31T06:10:02;99228.44;;;6.41
73685;BMP280;61985;51.070;14.064;2022-10-31T06:12:28;99228.81;;;6.36
73685;BMP280;61985;51.070;14.064;2022-10-31T06:14:53;99239.06;;;6.26
73685;BMP280;61985;51.070;14.064;2022-10-31T06:17:18;99231.88;;;6.45
73685;BMP280;61985;51.070;14.064;2022-10-31T06:19:44;99230.38;;;6.48
73685;BMP280;61985;51.070;14.064;2022-10-31T06:22:09;99233.78;;;6.41
73685;BMP280;61985;51.070;14.064;2022-10-31T06:24:37;99238.41;;;6.51
73685;BMP280;61985;51.070;14.064;2022-10-31T06:27:02;99236.88;;;6.57
73685;BMP280;61985;51.070;14.064;2022-10-31T06:29:27;99247.22;;;6.55
73685;BMP280;61985;51.070;14.064;2022-10-31T06:31:53;99252.97;;;6.61
73685;BMP280;61985;51.070;14.064;2022-10-31T06:34:18;99251.84;;;6.66
73685;BMP280;61985;51.070;14.064;2022-10-31T06:36:45;99252.22;;;6.75
73685;BMP280;61985;51.070;14.064;2022-10-31T06:39:11;99256.81;;;6.78
73685;BMP280;61985;51.070;14.064;2022-10-31T06:41:36;99263.75;;;6.90
73685;BMP280;61985;51.070;14.064;2022-10-31T06:44:02;99254.56;;;7.01
73685;BMP280;61985;51.070;14.064;2022-10-31T06:46:27;99256.84;;;7.10
73685;BMP280;61985;51.070;14.064;2022-10-31T06:48:52;99266.81;;;7.20
73685;BMP280;61985;51.070;14.064;2022-10-31T06:51:18;99261.81;;;7.30
73685;BMP280;61985;51.070;14.064;2022-10-31T06:53:43;99273.31;;;7.41
73685;BMP280;61985;51.070;14.064;2022-10-31T06:56:09;99270.25;;;7.53
73685;BMP280;61985;51.070;14.064;2022-10-31T06:58:34;99273.66;;;7.61
73685;BMP280;61985;51.070;14.064;2022-10-31T07:01:00;99275.97;;;7.70
73685;BMP280;61985;51.070;14.064;2022-10-31T07:03:25;99284.34;;;7.83
73685;BMP280;61985;51.070;14.064;2022-10-31T07:05:51;99282.03;;;7.92
73685;BMP280;61985;51.070;14.064;2022-10-31T07:08:16;99283.94;;;8.02
73685;BMP280;61985;51.070;14.064;2022-10-31T07:10:42;99287.31;;;8.13
73685;BMP280;61985;51.070;14.064;2022-10-31T07:13:13;99292.28;;;8.26
73685;BMP280;61985;51.070;14.064;2022-10-31T07:15:40;99291.13;;;8.30
73685;BMP280;61985;51.070;14.064;2022-10-31T07:18:07;99293.38;;;8.39
73685;BMP280;61985;51.070;14.064;2022-10-31T07:20:33;99289.84;;;8.49
73685;BMP280;61985;51.070;14.064;2022-10-31T07:22:59;99295.56;;;8.59
73685;BMP280;61985;51.070;14.064;2022-10-31T07:25:25;99298.56;;;8.68
73685;BMP280;61985;51.070;14.064;2022-10-31T07:27:51;99293.53;;;8.73
73685;BMP280;61985;51.070;14.064;2022-10-31T07:30:16;99301.59;;;8.81
73685;BMP280;61985;51.070;14.064;2022-10-31T07:32:46;99288.09;;;8.84
73685;BMP280;61985;51.070;14.064;2022-10-31T07:35:14;99300.75;;;8.91
73685;BMP280;61985;51.070;14.064;2022-10-31T07:37:40;99297.25;;;8.94
73685;BMP280;61985;51.070;14.064;2022-10-31T07:40:06;99291.47;;;8.99
73685;BMP280;61985;51.070;14.064;2022-10-31T07:42:36;99295.28;;;9.02
73685;BMP280;61985;51.070;14.064;2022-10-31T07:45:02;99293.72;;;9.04
73685;BMP280;61985;51.070;14.064;2022-10-31T07:47:28;99298.28;;;9.11
73685;BMP280;61985;51.070;14.064;2022-10-31T07:49:53;99302.47;;;9.19
73685;BMP280;61985;51.070;14.064;2022-10-31T07:52:19;99300.47;;;9.23
73685;BMP280;61985;51.070;14.064;2022-10-31T07:54:44;99292.00;;;9.28
73685;BMP280;61985;51.070;14.064;2022-10-31T07:57:12;99290.44;;;9.31
73685;BMP280;61985;51.070;14.064;2022-10-31T07:59:37;99298.84;;;9.37
73685;BMP280;61985;51.070;14.064;2022-10-31T08:02:03;99299.97;;;9.39
73685;BMP280;61985;51.070;14.064;2022-10-31T08:04:28;99304.06;;;9.51
73685;BMP280;61985;51.070;14.064;2022-10-31T08:06:53;99299.44;;;9.55
73685;BMP280;61985;51.070;14.064;2022-10-31T08:09:19;99301.28;;;9.62
73685;BMP280;61985;51.070;14.064;2022-10-31T08:11:44;99296.59;;;9.69
73685;BMP280;61985;51.070;14.064;2022-10-31T08:14:09;99298.78;;;9.82
73685;BMP280;61985;51.070;14.064;2022-10-31T08:16:35;99297.53;;;9.90
73685;BMP280;61985;51.070;14.064;2022-10-31T08:19:00;99293.59;;;9.98
73685;BMP280;61985;51.070;14.064;2022-10-31T08:21:25;99302.78;;;10.04
73685;BMP280;61985;51.070;14.064;2022-10-31T08:23:51;99294.03;;;10.27
73685;BMP280;61985;51.070;14.064;2022-10-31T08:26:16;99294.44;;;10.53
73685;BMP280;61985;51.070;14.064;2022-10-31T08:28:41;99293.81;;;10.69
73685;BMP280;61985;51.070;14.064;2022-10-31T08:31:07;99293.31;;;10.78
73685;BMP280;61985;51.070;14.064;2022-10-31T08:33:32;99301.22;;;10.88
73685;BMP280;61985;51.070;14.064;2022-10-31T08:35:58;99299.88;;;11.00
73685;BMP280;61985;51.070;14.064;2022-10-31T08:38:24;99301.94;;;11.16
73685;BMP280;61985;51.070;14.064;2022-10-31T08:40:49;99298.97;;;11.31
73685;BMP280;61985;51.070;14.064;2022-10-31T08:43:16;99302.31;;;11.38
73685;BMP280;61985;51.070;14.064;2022-10-31T08:45:43;99304.19;;;11.41
73685;BMP280;61985;51.070;14.064;2022-10-31T08:48:13;99302.81;;;11.53
73685;BMP280;61985;51.070;14.064;2022-10-31T08:50:40;99314.81;;;11.72
73685;BMP280;61985;51.070;14.064;2022-10-31T08:53:09;99306.84;;;11.85
73685;BMP280;61985;51.070;14.064;2022-10-31T08:55:36;99316.19;;;12.00
73685;BMP280;61985;51.070;14.064;2022-10-31T08:58:04;99310.13;;;12.13
73685;BMP280;61985;51.070;14.064;2022-10-31T09:00:49;99313.81;;;12.22
73685;BMP280;61985;51.070;14.064;2022-10-31T09:03:17;99312.81;;;12.33
73685;BMP280;61985;51.070;14.064;2022-10-31T09:05:43;99315.66;;;12.45
73685;BMP280;61985;51.070;14.064;2022-10-31T09:08:09;99311.25;;;12.52
73685;BMP280;61985;51.070;14.064;2022-10-31T09:10:36;99311.44;;;12.61
73685;BMP280;61985;51.070;14.064;2022-10-31T09:13:05;99313.47;;;12.73
73685;BMP280;61985;51.070;14.064;2022-10-31T09:15:36;99314.81;;;12.81
73685;BMP280;61985;51.070;14.064;2022-10-31T09:18:02;99315.56;;;12.82
73685;BMP280;61985;51.070;14.064;2022-10-31T09:20:28;99316.00;;;12.97
73685;BMP280;61985;51.070;14.064;2022-10-31T09:23:03;99317.81;;;13.16
73685;BMP280;61985;51.070;14.064;2022-10-31T09:25:29;99321.72;;;13.15
73685;BMP280;61985;51.070;14.064;2022-10-31T09:27:59;99323.91;;;13.20
73685;BMP280;61985;51.070;14.064;2022-10-31T09:30:27;99331.59;;;13.22
73685;BMP280;61985;51.070;14.064;2022-10-31T09:32:57;99325.66;;;13.27
73685;BMP280;61985;51.070;14.064;2022-10-31T09:35:23;99325.75;;;13.23
73685;BMP280;61985;51.070;14.064;2022-10-31T09:38:04;99334.19;;;13.25
73685;BMP280;61985;51.070;14.064;2022-10-31T09:40:37;99334.44;;;13.31
73685;BMP280;61985;51.070;14.064;2022-10-31T09:46:17;99326.63;;;13.50
73685;BMP280;61985;51.070;14.064;2022-10-31T09:52:04;99320.91;;;13.60
73685;BMP280;61985;51.070;14.064;2022-10-31T09:54:40;99325.50;;;13.63
73685;BMP280;61985;51.070;14.064;2022-10-31T09:57:13;99324.84;;;13.72
73685;BMP280;61985;51.070;14.064;2022-10-31T09:59:40;99320.63;;;13.71
73685;BMP280;61985;51.070;14.064;2022-10-31T10:02:14;99320.44;;;13.78
73685;BMP280;61985;51.070;14.064;2022-10-31T10:04:53;99315.78;;;13.79
73685;BMP280;61985;51.070;14.064;2022-10-31T10:10:00;99316.44;;;13.83
73685;BMP280;61985;51.070;14.064;2022-10-31T10:21:09;99313.66;;;14.38
73685;BMP280;61985;51.070;14.064;2022-10-31T10:23:46;99312.91;;;14.37
73685;BMP280;61985;51.070;14.064;2022-10-31T11:15:27;99272.72;;;15.49
73685;BMP280;61985;51.070;14.064;2022-10-31T11:17:55;99287.06;;;15.50
73685;BMP280;61985;51.070;14.064;2022-10-31T11:20:35;99273.47;;;15.50
73685;BMP280;61985;51.070;14.064;2022-10-31T11:23:24;99268.78;;;15.51
73685;BMP280;61985;51.070;14.064;2022-10-31T11:25:50;99264.84;;;15.52
73685;BMP280;61985;51.070;14.064;2022-10-31T11:28:16;99271.69;;;15.56
73685;BMP280;61985;51.070;14.064;2022-10-31T11:30:45;99264.22;;;15.69
73685;BMP280;61985;51.070;14.064;2022-10-31T11:33:17;99269.06;;;15.75
73685;BMP280;61985;51.070;14.064;2022-10-31T11:35:43;99275.28;;;15.84
73685;BMP280;61985;51.070;14.064;2022-10-31T11:38:17;99266.44;;;15.93
73685;BMP280;61985;51.070;14.064;2022-10-31T11:41:10;99262.69;;;16.09
73685;BMP280;61985;51.070;14.064;2022-10-31T11:43:37;99256.09;;;16.19
73685;BMP280;61985;51.070;14.064;2022-10-31T11:46:18;99247.19;;;16.28
73685;BMP280;61985;51.070;14.064;2022-10-31T11:48:51;99239.19;;;16.43
73685;BMP280;61985;51.070;14.064;2022-10-31T11:51:25;99244.66;;;16.52
73685;BMP280;61985;51.070;14.064;2022-10-31T11:53:52;99242.84;;;16.67
73685;BMP280;61985;51.070;14.064;2022-10-31T11:56:17;99243.28;;;16.84
73685;BMP280;61985;51.070;14.064;2022-10-31T11:58:43;99250.84;;;16.99
73685;BMP280;61985;51.070;14.064;2022-10-31T12:01:30;99235.84;;;17.12
73685;BMP280;61985;51.070;14.064;2022-10-31T12:04:09;99234.91;;;17.25
73685;BMP280;61985;51.070;14.064;2022-10-31T12:06:40;99230.31;;;17.40
73685;BMP280;61985;51.070;14.064;2022-10-31T12:09:33;99232.25;;;17.58
73685;BMP280;61985;51.070;14.064;2022-10-31T12:15:50;99213.91;;;17.92
73685;BMP280;61985;51.070;14.064;2022-10-31T12:17:52;99221.25;;;18.01
73685;BMP280;61985;51.070;14.064;2022-10-31T12:34:33;99205.31;;;18.32
73685;BMP280;61985;51.070;14.064;2022-10-31T12:40:10;99203.97;;;18.28
73685;BMP280;61985;51.070;14.064;2022-10-31T12:48:23;99186.31;;;18.38
73685;BMP280;61985;51.070;14.064;2022-10-31T12:59:00;99182.00;;;18.46
73685;BMP280;61985;51.070;14.064;2022-10-31T13:01:35;99182.56;;;18.50
73685;BMP280;61985;51.070;14.064;2022-10-31T13:04:30;99176.06;;;18.63
73685;BMP280;61985;51.070;14.064;2022-10-31T13:07:02;99172.88;;;18.79
73685;BMP280;61985;51.070;14.064;2022-10-31T13:09:37;99169.41;;;18.93
73685;BMP280;61985;51.070;14.064;2022-10-31T13:12:12;99170.22;;;19.14
73685;BMP280;61985;51.070;14.064;2022-10-31T13:14:59;99166.38;;;19.06
73685;BMP280;61985;51.070;14.064;2022-10-31T13:17:34;99174.16;;;19.13
73685;BMP280;61985;51.070;14.064;2022-10-31T13:20:24;99167.16;;;19.27
73685;BMP280;61985;51.070;14.064;2022-10-31T13:22:55;99156.31;;;19.48
73685;BMP280;61985;51.070;14.064;2022-10-31T13:25:28;99157.94;;;19.60
73685;BMP280;61985;51.070;14.064;2022-10-31T13:27:59;99152.19;;;19.78
73685;BMP280;61985;51.070;14.064;2022-10-31T13:30:29;99158.47;;;20.05
73685;BMP280;61985;51.070;14.064;2022-10-31T13:36:10;99151.28;;;20.34
73685;BMP280;61985;51.070;14.064;2022-10-31T13:38:56;99148.44;;;20.75
73685;BMP280;61985;51.070;14.064;2022-10-31T13:46:52;99140.47;;;21.14
73685;BMP280;61985;51.070;14.064;2022-10-31T13:57:31;99132.75;;;21.12
73685;BMP280;61985;51.070;14.064;2022-10-31T14:00:05;99130.53;;;21.17
73685;BMP280;61985;51.070;14.064;2022-10-31T14:02:31;99139.41;;;21.43
73685;BMP280;61985;51.070;14.064;2022-10-31T14:05:01;99135.22;;;21.65
73685;BMP280;61985;51.070;14.064;2022-10-31T14:07:28;99142.81;;;21.87
73685;BMP280;61985;51.070;14.064;2022-10-31T14:10:05;99132.59;;;21.93
73685;BMP280;61985;51.070;14.064;2022-10-31T14:12:44;99126.59;;;21.89
73685;BMP280;61985;51.070;14.064;2022-10-31T14:15:24;99133.53;;;21.84
73685;BMP280;61985;51.070;14.064;2022-10-31T14:17:57;99133.06;;;21.97
73685;BMP280;61985;51.070;14.064;2022-10-31T14:20:42;99122.09;;;21.97
73685;BMP280;61985;51.070;14.064;2022-10-31T14:28:51;99121.53;;;21.59
73685;BMP280;61985;51.070;14.064;2022-10-31T14:31:36;99122.13;;;21.26
73685;BMP280;61985;51.070;14.064;2022-10-31T14:37:22;99123.50;;;20.67
73685;BMP280;61985;51.070;14.064;2022-10-31T14:51:10;99091.56;;;18.38
73685;BMP280;61985;51.070;14.064;2022-10-31T14:53:53;99094.94;;;17.80
73685;BMP280;61985;51.070;14.064;2022-10-31T14:56:27;99098.34;;;17.41
73685;BMP280;61985;51.070;14.064;2022-10-31T14:58:57;99090.34;;;17.04
73685;BMP280;61985;51.070;14.064;2022-10-31T15:01:32;99093.31;;;16.82
73685;BMP280;61985;51.070;14.064;2022-10-31T15:04:09;99092.91;;;16.65
73685;BMP280;61985;51.070;14.064;2022-10-31T15:06:41;99084.47;;;16.45
73685;BMP280;61985;51.070;14.064;2022-10-31T15:09:25;99081.44;;;16.15
73685;BMP280;61985;51.070;14.064;2022-10-31T15:11:51;99083.97;;;15.82
73685;BMP280;61985;51.070;14.064;2022-10-31T15:14:23;99083.66;;;15.61
73685;BMP280;61985;51.070;14.064;2022-10-31T15:16:49;99079.53;;;15.47
73685;BMP280;61985;51.070;14.064;2022-10-31T15:19:23;99083.88;;;15.36
73685;BMP280;61985;51.070;14.064;2022-10-31T15:21:51;99081.31;;;15.32
73685;BMP280;61985;51.070;14.064;2022-10-31T15:24:17;99079.44;;;15.20
73685;BMP280;61985;51.070;14.064;2022-10-31T15:26:46;99080.13;;;15.02
73685;BMP280;61985;51.070;14.064;2022-10-31T15:29:17;99077.03;;;14.91
73685;BMP280;61985;51.070;14.064;2022-10-31T15:32:18;99076.19;;;14.72
73685;BMP280;61985;51.070;14.064;2022-10-31T15:34:44;99068.75;;;14.63
73685;BMP280;61985;51.070;14.064;2022-10-31T15:37:15;99075.94;;;14.57
73685;BMP280;61985;51.070;14.064;2022-10-31T15:39:42;99069.13;;;14.52
73685;BMP280;61985;51.070;14.064;2022-10-31T15:45:01;99071.75;;;14.21
73685;BMP280;61985;51.070;14.064;2022-10-31T15:47:29;99068.22;;;14.11
73685;BMP280;61985;51.070;14.064;2022-10-31T15:49:57;99065.41;;;14.02
73685;BMP280;61985;51.070;14.064;2022-10-31T15:52:34;99062.50;;;13.96
73685;BMP280;61985;51.070;14.064;2022-10-31T15:57:42;99055.25;;;13.93
73685;BMP280;61985;51.070;14.064;2022-10-31T16:00:30;99050.94;;;13.83
73685;BMP280;61985;51.070;14.064;2022-10-31T16:03:26;99056.16;;;13.77
73685;BMP280;61985;51.070;14.064;2022-10-31T16:05:55;99057.78;;;13.75
73685;BMP280;61985;51.070;14.064;2022-10-31T16:08:44;99049.91;;;13.68
73685;BMP280;61985;51.070;14.064;2022-10-31T16:13:53;99042.34;;;13.50
73685;BMP280;61985;51.070;14.064;2022-10-31T16:16:19;99038.88;;;13.49
73685;BMP280;61985;51.070;14.064;2022-10-31T16:18:46;99038.44;;;13.51
73685;BMP280;61985;51.070;14.064;2022-10-31T16:21:12;99031.06;;;13.51
73685;BMP280;61985;51.070;14.064;2022-10-31T16:23:39;99033.66;;;13.55
73685;BMP280;61985;51.070;14.064;2022-10-31T16:26:09;99030.19;;;13.67
73685;BMP280;61985;51.070;14.064;2022-10-31T16:28:35;99023.78;;;13.74
73685;BMP280;61985;51.070;14.064;2022-10-31T16:31:01;99030.34;;;13.85
73685;BMP280;61985;51.070;14.064;2022-10-31T16:33:37;99026.53;;;13.96
73685;BMP280;61985;51.070;14.064;2022-10-31T16:39:02;99028.69;;;14.01
73685;BMP280;61985;51.070;14.064;2022-10-31T16:41:28;99031.09;;;13.99
73685;BMP280;61985;51.070;14.064;2022-10-31T16:43:53;99040.81;;;13.96
73685;BMP280;61985;51.070;14.064;2022-10-31T16:46:22;99038.47;;;13.85
73685;BMP280;61985;51.070;14.064;2022-10-31T16:48:49;99038.50;;;13.73
73685;BMP280;61985;51.070;14.064;2022-10-31T16:51:15;99039.84;;;13.55
73685;BMP280;61985;51.070;14.064;2022-10-31T16:53:40;99039.13;;;13.29
73685;BMP280;61985;51.070;14.064;2022-10-31T16:56:14;99040.41;;;13.12
73685;BMP280;61985;51.070;14.064;2022-10-31T16:58:40;99044.94;;;13.02
73685;BMP280;61985;51.070;14.064;2022-10-31T17:01:06;99032.66;;;12.84
73685;BMP280;61985;51.070;14.064;2022-10-31T17:03:32;99039.91;;;12.75
73685;BMP280;61985;51.070;14.064;2022-10-31T17:05:57;99026.25;;;12.65
73685;BMP280;61985;51.070;14.064;2022-10-31T17:08:23;99022.91;;;12.61